Time;durP1;ratioP1;P1;durP2;ratioP2;P2;SDS_P1;SDS_P2;PMS_P1;PMS_P2;Temp;Humidity;BMP_temperature;BMP_pressure;BME280_temperature;BME280_humidity;BME280_pressure;Samples;Min_cycle;Max_cycle;Signal;HPM_P1;HPM_P2
2024/03/13 00:00:32;;;;;;;48.40;38.10;;;6.80;99.90;;;;;;5135191;28;20468;-79
2024/03/13 00:03:00;;;;;;;44.17;37.17;;;6.90;99.90;;;;;;5135207;28;20451;-79
2024/03/13 00:05:30;;;;;;;42.90;37.83;;;6.90;99.90;;;;;;5135285;28;20481;-79
2024/03/13 00:07:59;;;;;;;42.57;37.10;;;6.90;99.90;;;;;;5134754;28;20495;-78
2024/03/13 00:10:28;;;;;;;50.73;42.50;;;6.90;99.90;;;;;;5135284;28;20538;-79
2024/03/13 00:12:56;;;;;;;44.37;36.90;;;6.80;99.90;;;;;;5136502;28;20953;-79
2024/03/13 00:15:24;;;;;;;48.17;39.53;;;6.90;99.90;;;;;;5134766;28;20497;-79
2024/03/13 00:17:52;;;;;;;49.73;39.73;;;6.80;99.90;;;;;;5135232;28;20898;-79
2024/03/13 00:20:21;;;;;;;49.43;42.10;;;6.80;99.90;;;;;;5134837;28;20477;-79
2024/03/13 00:22:50;;;;;;;46.87;41.77;;;6.90;99.90;;;;;;5135685;27;20516;-79
2024/03/13 00:25:19;;;;;;;52.73;43.33;;;6.90;99.90;;;;;;5135013;28;20550;-79
2024/03/13 00:27:48;;;;;;;55.50;42.80;;;6.90;99.90;;;;;;5134885;28;20545;-79
2024/03/13 00:30:16;;;;;;;45.83;40.43;;;6.90;99.90;;;;;;5134760;28;20465;-79
2024/03/13 00:32:45;;;;;;;48.57;41.00;;;6.90;99.90;;;;;;5135863;28;20473;-79
2024/03/13 00:35:14;;;;;;;49.73;41.10;;;6.90;99.90;;;;;;5135905;27;20434;-79
2024/03/13 00:37:42;;;;;;;49.63;42.97;;;6.90;99.90;;;;;;5134595;28;20456;-79
2024/03/13 00:40:13;;;;;;;51.90;42.23;;;6.90;99.90;;;;;;5134487;28;20476;-79
2024/03/13 00:42:44;;;;;;;48.37;43.10;;;6.90;99.90;;;;;;5135939;28;20438;-79
2024/03/13 00:45:13;;;;;;;46.20;37.17;;;6.90;99.90;;;;;;5134268;28;20452;-78
2024/03/13 00:47:41;;;;;;;48.60;43.30;;;7.00;99.90;;;;;;5135923;28;20439;-80
2024/03/13 00:50:12;;;;;;;46.97;41.00;;;6.90;99.90;;;;;;5134042;28;20498;-79
2024/03/13 00:52:41;;;;;;;50.17;44.67;;;7.00;99.90;;;;;;5135961;27;20794;-80
2024/03/13 00:55:10;;;;;;;48.87;43.40;;;7.00;99.90;;;;;;5138009;27;20610;-80
2024/03/13 00:57:42;;;;;;;51.67;44.73;;;7.00;99.90;;;;;;5139993;27;20508;-80
2024/03/13 01:00:18;;;;;;;48.87;41.93;;;7.00;99.90;;;;;;5137729;27;20556;-80
2024/03/13 01:02:47;;;;;;;46.70;37.70;;;7.00;99.90;;;;;;5137740;27;20434;-80
2024/03/13 01:05:16;;;;;;;45.77;38.67;;;7.00;99.90;;;;;;5137778;27;20440;-80
2024/03/13 01:07:48;;;;;;;42.40;37.80;;;7.00;99.90;;;;;;5137987;27;20445;-80
2024/03/13 01:10:16;;;;;;;46.17;39.80;;;7.00;99.90;;;;;;5137694;27;20838;-79
2024/03/13 01:12:45;;;;;;;47.57;41.10;;;6.90;99.90;;;;;;5137438;27;20565;-79
2024/03/13 01:15:14;;;;;;;48.30;38.23;;;6.90;99.90;;;;;;5137974;27;20451;-79
2024/03/13 01:17:43;;;;;;;44.20;36.83;;;6.90;99.90;;;;;;5137921;27;20476;-79
2024/03/13 01:20:17;;;;;;;42.40;37.43;;;6.90;99.90;;;;;;5138575;27;20450;-80
2024/03/13 01:22:47;;;;;;;45.13;40.23;;;6.90;99.90;;;;;;5138520;27;20435;-79
2024/03/13 01:25:19;;;;;;;49.57;41.47;;;6.90;99.90;;;;;;5138284;27;20431;-79
2024/03/13 01:27:48;;;;;;;44.90;38.07;;;6.80;99.90;;;;;;5138203;27;20476;-79
2024/03/13 01:30:18;;;;;;;45.20;37.73;;;6.80;99.90;;;;;;5137791;27;20468;-79
2024/03/13 01:32:47;;;;;;;48.40;39.77;;;6.80;99.90;;;;;;5137426;27;20466;-79
2024/03/13 01:35:17;;;;;;;47.27;38.73;;;6.70;99.90;;;;;;5138127;27;20504;-79
2024/03/13 01:37:58;;;;;;;47.67;37.93;;;6.70;99.90;;;;;;5137884;27;20460;-79
2024/03/13 01:54:50;;;;;;;43.13;34.10;;;6.70;99.90;;;;;;5140483;27;20517;-80
2024/03/13 01:58:07;;;;;;;46.47;39.77;;;6.50;99.90;;;;;;5090818;27;20449;-79
2024/03/13 02:03:26;;;;;;;43.23;33.33;;;6.40;99.90;;;;;;5137799;27;20429;-78
2024/03/13 02:05:56;;;;;;;47.07;35.80;;;6.40;99.90;;;;;;5137607;27;20944;-78
2024/03/13 02:08:25;;;;;;;47.57;41.33;;;6.30;99.90;;;;;;5137630;27;20484;-79
2024/03/13 02:10:57;;;;;;;46.37;36.77;;;6.30;99.90;;;;;;5136654;27;20503;-79
2024/03/13 02:13:26;;;;;;;44.17;38.80;;;6.30;99.90;;;;;;5137402;27;20471;-79
2024/03/13 02:15:54;;;;;;;43.90;34.27;;;6.20;99.90;;;;;;5137355;27;20512;-79
2024/03/13 02:18:28;;;;;;;48.63;37.60;;;6.20;99.90;;;;;;5136808;27;20450;-79
2024/03/13 02:20:58;;;;;;;47.20;33.93;;;6.20;99.90;;;;;;5136721;27;20471;-79
2024/03/13 02:23:28;;;;;;;48.50;38.67;;;6.20;99.90;;;;;;5137003;27;20489;-79
2024/03/13 02:25:57;;;;;;;47.07;35.73;;;6.10;99.90;;;;;;5103627;27;20455;-79
2024/03/13 02:28:32;;;;;;;46.30;35.30;;;6.10;99.90;;;;;;5103722;27;20455;-78
2024/03/13 02:31:01;;;;;;;49.70;36.43;;;6.10;99.90;;;;;;5103452;27;20441;-79
2024/03/13 02:33:30;;;;;;;45.07;36.13;;;6.00;99.90;;;;;;5103158;27;20829;-78
2024/03/13 02:35:59;;;;;;;48.60;36.13;;;6.00;99.90;;;;;;5102620;27;20456;-78
2024/03/13 02:38:28;;;;;;;49.50;34.00;;;6.00;99.90;;;;;;5103344;27;20961;-79
2024/03/13 02:40:56;;;;;;;45.57;35.50;;;6.00;99.90;;;;;;5102865;27;20470;-78
2024/03/13 02:43:25;;;;;;;49.27;35.77;;;5.90;99.90;;;;;;5123865;27;20829;-79
2024/03/13 02:45:53;;;;;;;46.13;34.73;;;5.90;99.90;;;;;;5103876;27;20476;-79
2024/03/13 02:48:22;;;;;;;47.73;36.23;;;5.90;99.90;;;;;;5103641;27;20546;-78
2024/03/13 02:50:50;;;;;;;47.70;36.40;;;5.80;99.90;;;;;;5120341;27;20544;-79
2024/03/13 02:53:19;;;;;;;53.07;39.93;;;5.80;99.90;;;;;;5103082;27;20462;-79
2024/03/13 02:55:48;;;;;;;48.23;37.60;;;5.80;99.90;;;;;;5119635;27;20471;-78
2024/03/13 02:58:16;;;;;;;48.60;37.80;;;5.70;99.90;;;;;;5119793;27;20441;-78
2024/03/13 03:00:45;;;;;;;46.30;36.67;;;5.70;99.90;;;;;;5119580;27;20454;-79
2024/03/13 03:03:14;;;;;;;49.00;36.73;;;5.70;99.90;;;;;;5102660;27;20473;-78
2024/03/13 03:05:42;;;;;;;45.83;35.93;;;5.70;99.90;;;;;;5119707;27;20532;-78
2024/03/13 03:08:11;;;;;;;50.50;39.53;;;5.60;99.90;;;;;;5119392;27;20466;-78
2024/03/13 03:10:39;;;;;;;47.63;34.83;;;5.60;99.90;;;;;;5102679;27;20805;-79
2024/03/13 03:13:08;;;;;;;48.33;33.97;;;5.60;99.90;;;;;;5118948;27;20463;-79
2024/03/13 03:15:38;;;;;;;47.40;34.20;;;5.60;99.90;;;;;;5102112;27;20534;-78
2024/03/13 03:18:07;;;;;;;52.17;36.93;;;5.60;99.90;;;;;;5102751;27;20816;-78
2024/03/13 03:20:36;;;;;;;47.10;35.60;;;5.50;99.90;;;;;;5102064;27;21067;-79
2024/03/13 03:23:04;;;;;;;49.80;35.73;;;5.50;99.90;;;;;;5102598;27;20443;-79
2024/03/13 03:25:32;;;;;;;46.77;34.13;;;5.50;99.90;;;;;;5102161;27;20493;-79
2024/03/13 03:28:01;;;;;;;50.57;35.20;;;5.40;99.90;;;;;;5102151;27;20451;-77
2024/03/13 03:30:30;;;;;;;51.03;38.53;;;5.40;99.90;;;;;;5119087;27;20498;-79
2024/03/13 03:33:00;;;;;;;47.50;36.50;;;5.40;99.90;;;;;;5102060;27;20463;-79
2024/03/13 03:35:29;;;;;;;47.57;35.90;;;5.40;99.90;;;;;;5119452;27;20764;-79
2024/03/13 03:38:04;;;;;;;46.20;34.03;;;5.30;99.90;;;;;;5103767;28;20450;-78
2024/03/13 03:40:33;;;;;;;48.30;38.70;;;5.30;99.90;;;;;;5107776;28;20463;-79
2024/03/13 03:43:03;;;;;;;51.67;38.30;;;5.30;99.90;;;;;;5120572;27;20950;-79
2024/03/13 03:45:32;;;;;;;47.27;33.70;;;5.20;99.90;;;;;;5105144;28;20446;-79
2024/03/13 03:48:00;;;;;;;51.40;34.30;;;5.20;99.90;;;;;;5103666;28;20450;-79
2024/03/13 03:50:38;;;;;;;49.57;32.90;;;5.20;99.90;;;;;;5115808;28;20474;-79
2024/03/13 03:53:07;;;;;;;48.47;34.17;;;5.20;99.90;;;;;;5114567;28;20470;-79
2024/03/13 03:55:36;;;;;;;52.50;35.37;;;5.10;99.90;;;;;;5126492;28;20451;-79
2024/03/13 03:58:06;;;;;;;55.77;34.53;;;5.10;99.90;;;;;;5103354;28;20478;-78
2024/03/13 04:00:35;;;;;;;47.00;32.40;;;5.10;99.90;;;;;;5103187;28;20526;-78
2024/03/13 04:03:05;;;;;;;53.03;34.43;;;5.10;99.90;;;;;;5102615;28;20481;-78
2024/03/13 04:05:34;;;;;;;48.30;34.10;;;5.00;99.90;;;;;;5102429;28;20442;-78
2024/03/13 04:08:03;;;;;;;48.40;37.73;;;5.00;99.90;;;;;;5119465;28;20440;-78
2024/03/13 04:10:32;;;;;;;53.10;35.73;;;5.00;99.90;;;;;;5103093;28;20459;-78
2024/03/13 04:13:00;;;;;;;38.00;28.80;;;5.00;99.90;;;;;;5102068;28;20816;-78
2024/03/13 04:15:28;;;;;;;47.00;33.10;;;5.00;99.90;;;;;;5102068;28;20495;-79
2024/03/13 04:17:57;;;;;;;48.43;36.10;;;5.00;99.90;;;;;;5102186;28;20443;-79
2024/03/13 04:20:26;;;;;;;54.30;36.77;;;4.90;99.90;;;;;;5101670;28;20485;-78
2024/03/13 04:22:54;;;;;;;49.37;35.00;;;4.90;99.90;;;;;;5102062;28;20574;-77
2024/03/13 04:25:24;;;;;;;53.97;37.40;;;5.00;99.90;;;;;;5118348;28;20437;-79
2024/03/13 04:27:54;;;;;;;49.03;34.70;;;4.90;99.90;;;;;;5103821;27;20452;-78
2024/03/13 04:30:23;;;;;;;50.97;35.07;;;4.90;99.90;;;;;;5106153;27;20885;-79
2024/03/13 04:32:52;;;;;;;49.47;33.73;;;4.90;99.90;;;;;;5105580;27;20479;-78
2024/03/13 04:35:20;;;;;;;53.70;36.10;;;4.90;99.90;;;;;;5105625;27;20450;-78
2024/03/13 04:37:50;;;;;;;55.00;38.43;;;4.90;99.90;;;;;;5105844;27;20503;-78
2024/03/13 04:40:19;;;;;;;49.33;34.20;;;4.80;99.90;;;;;;5106246;27;20484;-78
2024/03/13 04:42:48;;;;;;;49.03;36.53;;;4.80;99.90;;;;;;5107281;27;20507;-79
2024/03/13 04:45:16;;;;;;;53.47;36.60;;;4.80;99.90;;;;;;5108872;27;20868;-79
2024/03/13 04:47:45;;;;;;;49.87;34.57;;;4.90;99.90;;;;;;5108191;27;20438;-78
2024/03/13 04:50:13;;;;;;;49.97;36.00;;;4.80;99.90;;;;;;5108406;27;20470;-79
2024/03/13 04:52:41;;;;;;;47.43;32.53;;;4.80;99.90;;;;;;5107650;27;20450;-78
2024/03/13 04:55:10;;;;;;;50.63;37.10;;;4.70;99.90;;;;;;5106890;27;20476;-78
2024/03/13 04:57:39;;;;;;;48.73;35.53;;;4.70;99.90;;;;;;5106165;27;20443;-78
2024/03/13 05:00:08;;;;;;;46.80;34.03;;;4.70;99.90;;;;;;5123500;27;20479;-78
2024/03/13 05:02:36;;;;;;;48.80;33.43;;;4.70;99.90;;;;;;5105628;27;20443;-78
2024/03/13 05:05:13;;;;;;;47.20;33.40;;;4.70;99.90;;;;;;5106517;27;20847;-78
2024/03/13 05:07:43;;;;;;;51.20;33.57;;;4.70;99.90;;;;;;5105851;27;20435;-78
2024/03/13 05:10:14;;;;;;;47.23;32.67;;;4.60;99.90;;;;;;5105183;27;20545;-78
2024/03/13 05:12:43;;;;;;;56.10;37.10;;;4.60;99.90;;;;;;5106084;27;20435;-78
2024/03/13 05:15:12;;;;;;;46.97;33.67;;;4.60;99.90;;;;;;5105175;27;20467;-77
2024/03/13 05:17:40;;;;;;;47.00;34.33;;;4.60;99.90;;;;;;5105265;27;21023;-78
2024/03/13 05:20:11;;;;;;;48.13;30.97;;;4.60;99.90;;;;;;5104897;27;20545;-78
2024/03/13 05:22:40;;;;;;;48.90;35.33;;;4.60;99.90;;;;;;5122595;27;20419;-78
2024/03/13 05:25:17;;;;;;;45.17;30.63;;;4.50;99.90;;;;;;5104957;27;20443;-78
2024/03/13 05:27:46;;;;;;;46.97;31.23;;;4.50;99.90;;;;;;5106941;27;20446;-78
2024/03/13 05:30:15;;;;;;;47.07;33.57;;;4.50;99.90;;;;;;5104797;27;20467;-78
2024/03/13 05:32:43;;;;;;;47.10;33.03;;;4.50;99.90;;;;;;5121143;27;20438;-78
2024/03/13 05:35:12;;;;;;;51.20;33.03;;;4.50;99.90;;;;;;5104115;27;20525;-77
2024/03/13 05:37:41;;;;;;;46.17;31.40;;;4.50;99.90;;;;;;5121064;27;20506;-77
2024/03/13 05:40:16;;;;;;;47.00;33.30;;;4.50;99.90;;;;;;5103886;27;20561;-79
2024/03/13 05:42:44;;;;;;;49.90;34.10;;;4.50;99.90;;;;;;5121624;27;20430;-78
2024/03/13 05:45:14;;;;;;;47.95;35.03;;;4.60;99.90;;;;;;5102614;27;20462;-79
2024/03/13 05:47:42;;;;;;;48.30;39.07;;;4.60;99.90;;;;;;5104402;27;20577;-78
2024/03/13 05:50:12;;;;;;;52.00;39.33;;;4.60;99.90;;;;;;5103941;27;21049;-78
2024/03/13 05:52:41;;;;;;;51.97;34.00;;;4.60;99.90;;;;;;5103991;27;20447;-78
2024/03/13 05:55:09;;;;;;;44.30;31.53;;;4.70;99.90;;;;;;5103744;27;20578;-77
2024/03/13 05:57:38;;;;;;;45.53;33.27;;;4.60;99.90;;;;;;5103673;27;20451;-78
2024/03/13 06:00:11;;;;;;;50.90;34.60;;;4.70;99.90;;;;;;5122647;27;20487;-78
2024/03/13 06:02:41;;;;;;;53.63;38.13;;;4.70;99.90;;;;;;5106557;27;20989;-79
2024/03/13 06:05:11;;;;;;;56.50;34.70;;;4.70;99.90;;;;;;5105329;27;20781;-79
2024/03/13 06:07:40;;;;;;;51.40;34.67;;;4.70;99.90;;;;;;5104581;27;20438;-79
2024/03/13 06:10:11;;;;;;;49.50;32.97;;;4.80;99.90;;;;;;5104336;27;20467;-79
2024/03/13 06:12:40;;;;;;;51.20;34.83;;;4.80;99.90;;;;;;5104344;27;20470;-79
2024/03/13 06:15:12;;;;;;;49.70;32.10;;;4.80;99.90;;;;;;5103646;27;20494;-78
2024/03/13 06:17:41;;;;;;;53.20;31.90;;;4.90;99.90;;;;;;5104937;27;20449;-79
2024/03/13 06:20:13;;;;;;;46.47;33.97;;;4.90;99.90;;;;;;5104302;27;20565;-79
2024/03/13 06:22:42;;;;;;;49.10;35.70;;;4.90;99.90;;;;;;5105109;27;20447;-78
2024/03/13 06:25:12;;;;;;;48.47;31.70;;;5.00;99.90;;;;;;5103627;27;20448;-79
2024/03/13 06:27:41;;;;;;;52.03;32.80;;;5.00;99.90;;;;;;5103919;27;20468;-78
2024/03/13 06:30:08;;;;;;;51.30;32.53;;;5.00;99.90;;;;;;5104148;27;20470;-78
2024/03/13 06:32:37;;;;;;;46.83;32.47;;;5.10;99.90;;;;;;5103862;27;20477;-78
2024/03/13 06:35:06;;;;;;;48.40;33.43;;;5.10;99.90;;;;;;5103068;27;20505;-79
2024/03/13 06:37:35;;;;;;;48.50;31.90;;;5.20;99.90;;;;;;5102458;27;20439;-79
2024/03/13 06:40:05;;;;;;;46.60;31.10;;;5.20;99.90;;;;;;5103120;27;20822;-77
2024/03/13 06:42:33;;;;;;;47.50;36.13;;;5.30;99.90;;;;;;5102564;27;20446;-79
2024/03/13 06:45:02;;;;;;;49.97;31.73;;;5.30;99.90;;;;;;5120431;27;20450;-78
2024/03/13 06:47:31;;;;;;;46.13;35.70;;;5.40;99.90;;;;;;5103165;27;20474;-78
2024/03/13 06:50:01;;;;;;;48.70;33.93;;;5.50;99.90;;;;;;5101446;27;20877;-78
2024/03/13 06:52:29;;;;;;;49.30;34.60;;;5.50;99.90;;;;;;5119523;27;20514;-79
2024/03/13 06:54:58;;;;;;;47.97;34.00;;;5.60;99.90;;;;;;5119536;27;20480;-78
2024/03/13 06:57:27;;;;;;;46.93;35.70;;;5.60;99.90;;;;;;5102374;27;20451;-78
2024/03/13 06:59:57;;;;;;;49.43;34.30;;;5.60;99.90;;;;;;5102269;27;20476;-79
2024/03/13 07:02:28;;;;;;;43.10;32.37;;;5.70;99.90;;;;;;5102781;27;20457;-79
2024/03/13 07:04:56;;;;;;;43.13;34.70;;;5.70;99.90;;;;;;5101762;27;20461;-78
2024/03/13 07:07:25;;;;;;;48.53;35.77;;;5.80;99.90;;;;;;5101701;27;20456;-79
2024/03/13 07:09:54;;;;;;;44.63;37.20;;;5.80;99.90;;;;;;5101268;27;20476;-79
2024/03/13 07:12:24;;;;;;;43.90;35.43;;;5.90;99.90;;;;;;5101833;27;20475;-79
2024/03/13 07:14:53;;;;;;;44.77;34.17;;;5.90;99.90;;;;;;5102174;27;20466;-79
2024/03/13 07:17:22;;;;;;;45.53;33.90;;;6.00;99.90;;;;;;5101676;27;20452;-79
2024/03/13 07:19:50;;;;;;;41.87;33.37;;;6.00;99.90;;;;;;5118220;27;20492;-78
2024/03/13 07:22:19;;;;;;;41.40;31.00;;;6.10;99.90;;;;;;5101431;27;20454;-78
2024/03/13 07:24:48;;;;;;;45.57;36.97;;;6.10;99.90;;;;;;5102196;27;20426;-79
2024/03/13 07:27:16;;;;;;;42.00;32.43;;;6.10;99.90;;;;;;5101402;27;20437;-77
2024/03/13 07:29:44;;;;;;;40.90;32.57;;;6.20;99.90;;;;;;5101091;27;20472;-79
2024/03/13 07:32:14;;;;;;;41.27;33.87;;;6.20;99.90;;;;;;5117846;27;20442;-79
2024/03/13 07:34:44;;;;;;;41.83;34.80;;;6.30;99.90;;;;;;5101022;27;20496;-77
2024/03/13 07:37:12;;;;;;;41.03;32.07;;;6.40;99.90;;;;;;5101238;27;20490;-77
2024/03/13 07:39:41;;;;;;;40.20;31.90;;;6.40;99.90;;;;;;5100858;28;20478;-79
2024/03/13 07:42:10;;;;;;;41.17;31.50;;;6.50;99.90;;;;;;5101275;28;20472;-78
2024/03/13 07:44:38;;;;;;;38.90;31.87;;;6.50;99.90;;;;;;5101499;28;20519;-79
2024/03/13 07:47:08;;;;;;;40.30;33.07;;;6.50;99.90;;;;;;5101909;28;20967;-77
2024/03/13 07:49:37;;;;;;;40.20;33.50;;;6.60;99.90;;;;;;5102547;28;20500;-77
2024/03/13 07:52:06;;;;;;;38.70;32.93;;;6.60;99.90;;;;;;5101540;28;20551;-78
2024/03/13 07:54:35;;;;;;;46.27;33.23;;;6.70;99.90;;;;;;5120040;28;20437;-76
2024/03/13 07:57:05;;;;;;;36.43;32.70;;;6.70;99.90;;;;;;5102228;28;20455;-76
2024/03/13 07:59:33;;;;;;;37.77;32.03;;;6.80;99.90;;;;;;5122788;28;20449;-78
2024/03/13 08:02:02;;;;;;;35.63;30.50;;;6.80;99.90;;;;;;5109148;27;20453;-79
2024/03/13 08:04:31;;;;;;;38.60;32.07;;;6.80;99.90;;;;;;5111555;27;20452;-78
2024/03/13 08:07:01;;;;;;;35.73;31.73;;;6.90;99.90;;;;;;5108943;27;20534;-77
2024/03/13 08:09:47;;;;;;;41.57;32.00;;;6.90;99.90;;;;;;5113488;27;20513;-77
2024/03/13 08:12:34;;;;;;;36.70;29.90;;;7.00;99.90;;;;;;5112351;27;20519;-78
2024/03/13 08:15:20;;;;;;;33.67;29.63;;;7.00;99.90;;;;;;5113356;27;20865;-77
2024/03/13 08:18:09;;;;;;;32.83;28.73;;;7.10;99.90;;;;;;5113665;27;20447;-78
2024/03/13 08:20:56;;;;;;;33.97;30.17;;;7.20;99.90;;;;;;5114983;27;20504;-78
2024/03/13 08:23:44;;;;;;;31.77;27.53;;;7.20;99.90;;;;;;5114703;27;20988;-78
2024/03/13 08:26:31;;;;;;;32.73;29.13;;;7.30;99.90;;;;;;5115038;27;20787;-79
2024/03/13 08:29:16;;;;;;;28.00;23.70;;;7.40;99.90;;;;;;5114063;27;20470;-78
2024/03/13 08:32:05;;;;;;;28.57;25.30;;;7.40;99.90;;;;;;5128158;27;20414;-78
2024/03/13 08:34:51;;;;;;;26.63;23.27;;;7.50;99.90;;;;;;5114074;27;20491;-77
2024/03/13 08:37:37;;;;;;;28.50;25.50;;;7.60;99.90;;;;;;5113190;27;20487;-77
2024/03/13 08:40:23;;;;;;;27.30;24.40;;;7.70;99.90;;;;;;5113205;27;20462;-78
2024/03/13 08:43:09;;;;;;;28.90;24.73;;;7.70;99.90;;;;;;5112733;27;20443;-77
2024/03/13 08:45:55;;;;;;;27.10;23.70;;;7.80;99.90;;;;;;5112295;27;20949;-78
2024/03/13 08:48:40;;;;;;;28.17;24.77;;;8.00;99.90;;;;;;5128530;27;20414;-77
2024/03/13 08:51:28;;;;;;;26.80;23.90;;;8.10;99.90;;;;;;5133872;27;20507;-78
2024/03/13 08:54:14;;;;;;;27.83;24.80;;;8.20;99.90;;;;;;5118948;27;20438;-79
2024/03/13 08:57:01;;;;;;;24.17;21.60;;;8.30;99.90;;;;;;5111965;27;20465;-78
2024/03/13 08:59:47;;;;;;;27.40;23.77;;;8.40;99.90;;;;;;5126490;27;20453;-78
2024/03/13 09:02:33;;;;;;;25.97;23.17;;;8.40;99.90;;;;;;5111694;27;20434;-79
2024/03/13 09:05:19;;;;;;;25.70;22.93;;;8.50;99.90;;;;;;5111850;27;20475;-78
2024/03/13 09:08:05;;;;;;;27.80;22.67;;;8.60;99.90;;;;;;5126394;27;20425;-77
2024/03/13 09:10:33;;;;;;;27.37;23.17;;;8.60;99.90;;;;;;5106703;27;20466;-77
2024/03/13 09:13:03;;;;;;;28.03;23.73;;;8.70;99.90;;;;;;5123184;27;20427;-78
2024/03/13 09:15:31;;;;;;;25.23;22.13;;;8.70;99.90;;;;;;5122718;27;20465;-77
2024/03/13 09:18:00;;;;;;;26.23;22.27;;;8.80;99.90;;;;;;5122474;27;20939;-78
2024/03/13 09:20:28;;;;;;;28.30;22.87;;;8.80;99.90;;;;;;5124087;27;20462;-78
2024/03/13 09:22:57;;;;;;;28.13;23.00;;;8.90;99.90;;;;;;5106251;27;20443;-79
2024/03/13 09:25:26;;;;;;;23.90;21.20;;;9.00;99.90;;;;;;5106114;27;20446;-78
2024/03/13 09:27:55;;;;;;;26.87;23.00;;;9.10;99.90;;;;;;5122519;27;20826;-79
2024/03/13 09:30:24;;;;;;;26.63;23.13;;;9.10;99.90;;;;;;5123385;27;20455;-78
2024/03/13 09:32:52;;;;;;;26.70;22.30;;;9.30;99.90;;;;;;5105410;27;20495;-77
2024/03/13 09:35:21;;;;;;;25.40;22.57;;;9.30;99.90;;;;;;5121796;27;20527;-78
2024/03/13 09:37:49;;;;;;;26.40;22.57;;;9.40;99.90;;;;;;5105041;27;20447;-77
2024/03/13 09:40:17;;;;;;;23.60;21.07;;;9.50;99.90;;;;;;5122164;27;20447;-79
2024/03/13 09:42:46;;;;;;;24.97;20.17;;;9.60;99.90;;;;;;5105104;27;20457;-78
2024/03/13 09:45:16;;;;;;;24.00;21.40;;;9.70;99.90;;;;;;5105173;27;20464;-79
2024/03/13 09:47:44;;;;;;;26.30;21.33;;;9.80;99.90;;;;;;5105298;27;20499;-78
2024/03/13 09:50:13;;;;;;;23.80;21.23;;;9.80;99.90;;;;;;5104846;27;20471;-78
2024/03/13 09:52:41;;;;;;;24.17;21.10;;;9.90;99.90;;;;;;5123134;27;20847;-79
2024/03/13 09:55:11;;;;;;;20.10;17.17;;;10.00;99.90;;;;;;5105228;27;20469;-77
2024/03/13 09:57:39;;;;;;;24.30;21.50;;;10.10;99.90;;;;;;5105432;27;20463;-79
2024/03/13 10:00:09;;;;;;;23.57;20.53;;;10.20;99.90;;;;;;5104786;27;20551;-78
2024/03/13 10:02:39;;;;;;;24.40;21.07;;;10.20;99.90;;;;;;5103449;27;20438;-78
2024/03/13 10:05:11;;;;;;;25.60;20.77;;;10.30;99.90;;;;;;5103879;27;20935;-78
2024/03/13 10:07:39;;;;;;;24.63;21.40;;;10.40;99.90;;;;;;5120567;27;20411;-78
2024/03/13 10:10:13;;;;;;;23.40;20.47;;;10.50;99.90;;;;;;5102776;27;20470;-78
2024/03/13 10:12:42;;;;;;;22.17;19.87;;;10.50;99.90;;;;;;5104198;27;20848;-78
2024/03/13 10:15:15;;;;;;;24.63;20.83;;;10.50;99.90;;;;;;5102732;27;20503;-78
2024/03/13 10:17:45;;;;;;;23.60;21.10;;;10.60;99.90;;;;;;5104220;27;20471;-78
2024/03/13 10:20:13;;;;;;;25.57;21.80;;;10.60;99.90;;;;;;5102839;27;20473;-78
2024/03/13 10:22:43;;;;;;;23.07;20.47;;;10.60;99.90;;;;;;5102919;27;20537;-78
2024/03/13 10:25:15;;;;;;;23.03;20.67;;;10.60;99.90;;;;;;5118988;27;20475;-78
2024/03/13 10:27:43;;;;;;;22.60;19.80;;;10.60;99.90;;;;;;5103379;27;20442;-78
2024/03/13 10:30:12;;;;;;;24.13;20.73;;;10.60;99.90;;;;;;5102641;27;20466;-78
2024/03/13 10:32:41;;;;;;;23.07;20.50;;;10.70;99.90;;;;;;5102576;27;20450;-78
2024/03/13 10:35:10;;;;;;;21.43;19.17;;;10.70;99.90;;;;;;5119411;27;20840;-78
2024/03/13 10:37:41;;;;;;;24.23;19.90;;;10.70;99.90;;;;;;5120001;27;20553;-77
2024/03/13 10:40:13;;;;;;;24.47;20.37;;;10.70;99.90;;;;;;5120338;27;20521;-77
2024/03/13 10:42:42;;;;;;;25.03;20.30;;;10.80;99.90;;;;;;5113024;27;20464;-78
2024/03/13 10:45:12;;;;;;;24.07;20.60;;;10.80;99.90;;;;;;5104493;27;20462;-78
2024/03/13 10:47:42;;;;;;;24.97;20.50;;;10.80;99.90;;;;;;5104569;27;20453;-78
2024/03/13 10:50:11;;;;;;;24.70;21.40;;;10.90;99.90;;;;;;5119856;27;20459;-78
2024/03/13 10:52:40;;;;;;;23.87;20.73;;;10.90;99.90;;;;;;5107993;27;20438;-77
2024/03/13 10:55:09;;;;;;;25.43;21.07;;;11.00;99.90;;;;;;5105725;27;20487;-78
2024/03/13 10:57:37;;;;;;;26.40;20.43;;;11.00;99.90;;;;;;5105302;27;20546;-80
2024/03/13 11:00:10;;;;;;;25.60;20.57;;;11.00;99.90;;;;;;5121702;27;20458;-78
2024/03/13 11:02:39;;;;;;;25.73;20.90;;;11.00;99.90;;;;;;5105739;27;20446;-77
2024/03/13 11:05:10;;;;;;;24.63;20.27;;;11.10;99.90;;;;;;5104623;27;20970;-78
2024/03/13 11:07:39;;;;;;;23.63;20.73;;;11.10;99.90;;;;;;5105535;27;20976;-79
2024/03/13 11:10:09;;;;;;;24.10;21.10;;;11.10;99.90;;;;;;5104912;27;20451;-80
2024/03/13 11:12:37;;;;;;;22.80;20.30;;;11.20;99.90;;;;;;5105979;27;20815;-78
2024/03/13 11:15:07;;;;;;;22.00;19.60;;;11.20;99.90;;;;;;5105538;27;20442;-79
2024/03/13 11:17:35;;;;;;;21.83;19.40;;;11.20;99.90;;;;;;5121905;27;20487;-76
2024/03/13 11:20:06;;;;;;;23.27;19.90;;;11.20;99.90;;;;;;5104649;27;20470;-80
2024/03/13 11:22:35;;;;;;;20.73;18.53;;;11.20;99.90;;;;;;5104846;27;20785;-77
2024/03/13 11:25:06;;;;;;;16.60;14.80;;;11.20;99.90;;;;;;5121401;27;20426;-78
2024/03/13 11:27:35;;;;;;;24.20;19.53;;;11.20;99.90;;;;;;5122032;27;20467;-79
2024/03/13 11:30:05;;;;;;;21.50;19.20;;;11.20;99.90;;;;;;5121417;27;20454;-80
2024/03/13 11:32:35;;;;;;;22.60;19.70;;;11.20;99.90;;;;;;5105417;27;20449;-79
2024/03/13 11:35:05;;;;;;;23.40;19.50;;;11.20;99.90;;;;;;5104614;28;20439;-78
2024/03/13 11:37:34;;;;;;;22.40;20.10;;;11.30;99.90;;;;;;5103847;27;20939;-80
2024/03/13 11:40:02;;;;;;;23.43;21.03;;;11.30;99.90;;;;;;5103515;27;20470;-80
2024/03/13 11:42:31;;;;;;;21.90;19.53;;;11.20;99.90;;;;;;5103980;27;20875;-78
2024/03/13 11:45:15;;;;;;;26.57;21.47;;;11.20;99.90;;;;;;5103405;28;20888;-80
2024/03/13 11:47:48;;;;;;;25.20;22.10;;;11.20;99.90;;;;;;5121783;27;20451;-77
2024/03/13 11:50:18;;;;;;;24.70;20.30;;;11.20;99.90;;;;;;5104414;28;20463;-79
2024/03/13 11:53:06;;;;;;;24.40;20.63;;;11.20;99.90;;;;;;5103805;28;20486;-78
2024/03/13 11:55:35;;;;;;;24.23;21.63;;;11.20;99.90;;;;;;5120605;28;20835;-77
2024/03/13 11:58:06;;;;;;;26.13;23.30;;;11.20;99.90;;;;;;5120168;28;20462;-78
2024/03/13 12:00:35;;;;;;;31.07;26.00;;;11.20;99.90;;;;;;5104078;28;20840;-79
2024/03/13 12:03:03;;;;;;;28.80;25.37;;;11.20;99.90;;;;;;5104015;28;20450;-78
2024/03/13 12:05:35;;;;;;;26.57;22.97;;;11.20;99.90;;;;;;5120168;28;20446;-79
2024/03/13 12:08:04;;;;;;;22.87;20.33;;;11.30;99.90;;;;;;5104999;28;20434;-79
2024/03/13 12:10:34;;;;;;;25.83;21.90;;;11.30;99.90;;;;;;5104251;28;20931;-80
2024/03/13 12:13:03;;;;;;;27.40;20.80;;;11.30;99.90;;;;;;5103760;28;20431;-79
2024/03/13 12:15:36;;;;;;;24.90;20.80;;;11.40;99.90;;;;;;5104973;28;21001;-77
2024/03/13 12:18:05;;;;;;;28.90;22.27;;;11.40;99.90;;;;;;5103217;28;20472;-77
2024/03/13 12:20:36;;;;;;;25.80;20.93;;;11.40;99.90;;;;;;5103116;28;20466;-78
2024/03/13 12:23:05;;;;;;;25.37;21.37;;;11.40;99.90;;;;;;5102622;28;20442;-77
2024/03/13 12:25:34;;;;;;;27.03;22.80;;;11.40;99.90;;;;;;5102450;28;20443;-77
2024/03/13 12:28:02;;;;;;;24.67;21.60;;;11.50;99.90;;;;;;5119453;28;20930;-78
2024/03/13 12:30:31;;;;;;;24.30;21.70;;;11.50;99.90;;;;;;5119134;28;20450;-78
2024/03/13 12:33:01;;;;;;;22.57;20.07;;;11.50;99.90;;;;;;5119015;28;20423;-78
2024/03/13 12:35:32;;;;;;;26.33;23.50;;;11.50;99.90;;;;;;5119243;28;20923;-78
2024/03/13 12:38:01;;;;;;;26.57;22.63;;;11.50;99.90;;;;;;5103110;28;20497;-79
2024/03/13 12:40:30;;;;;;;27.83;23.10;;;11.50;99.90;;;;;;5100729;28;20855;-80
2024/03/13 12:42:59;;;;;;;26.73;22.80;;;11.50;99.90;;;;;;5101074;28;21005;-79
2024/03/13 12:45:30;;;;;;;28.43;22.67;;;11.50;99.90;;;;;;5101279;28;20447;-81
2024/03/13 12:47:59;;;;;;;27.90;24.93;;;11.50;99.90;;;;;;5100900;27;20450;-80
2024/03/13 12:50:28;;;;;;;24.03;21.63;;;11.50;99.90;;;;;;5121264;27;20481;-79
2024/03/13 12:52:58;;;;;;;28.43;24.27;;;11.60;99.90;;;;;;5104886;27;20495;-79
2024/03/13 12:55:26;;;;;;;27.00;23.40;;;11.60;99.90;;;;;;5105386;27;20438;-79
2024/03/13 12:57:59;;;;;;;26.67;23.27;;;11.60;99.90;;;;;;5105243;27;20458;-79
2024/03/13 13:00:27;;;;;;;30.73;23.93;;;11.60;99.90;;;;;;5107536;27;20466;-81
2024/03/13 13:02:59;;;;;;;29.23;23.50;;;11.60;99.90;;;;;;5106647;27;20445;-80
2024/03/13 13:05:28;;;;;;;28.80;24.13;;;11.60;99.90;;;;;;5107515;27;20507;-80
2024/03/13 13:07:57;;;;;;;28.70;25.40;;;11.60;99.90;;;;;;5106776;27;20443;-80